Airfield :
LOGIN :

Register | Disclaimer

   EN    FR    IT 

 










Legend :    VFR   Marginal VFR   IFR   Intensive IFR   Very Intensive IFR
Visi :
Ceiling :
>= 8 km
>= 3000ft
5 to 8 km
1000 to 3000 ft
1500m to 5 km
500 to 1000 ft
800 to 1500m
200 to 500 ft
< 800m
< 200 ft
Symbols :   Thunderstorms  Fog  Heavy snow  Heavy precipitations  Wind > 20 kt
SIGMETs :     Misc.  Thunderstorms  Icing  Turbulence  Mountain Waves  Volcanic Ashes






- Airport Elevation : 817 ft
- IATA code : VHY


LFLV - Vichy

CURRENT METAR :
  • 231630Z AUTO 36006KT 330V030 9999 ///CB 16/11 Q1017

EXPIRED METARs :
  • 231600Z AUTO 35004KT 300V020 9999 ///CB 17/10 Q1017
  • 231530Z AUTO 35006KT 310V030 9999 FEW034/// ///CB 18/09 Q1017
  • 231500Z AUTO VRB03KT 9999 SCT034/// SCT100/// //////CB 19/12 Q1017
  • 231430Z AUTO VRB04KT 9999 ///CB 18/10 Q1017
  • 231400Z AUTO VRB03KT 9999 FEW026/// BKN045/// OVC056/// ///TCU 17/10 Q1018
  • 231330Z AUTO VRB03KT 9999 FEW030/// SCT074/// BKN086/// ///TCU 17/10 Q1018
  • 231300Z AUTO VRB03KT 9999 FEW025/// SCT080/// OVC130/// ///CB 17/10 Q1018
  • 231230Z AUTO 15004KT 090V190 9999 FEW034/// OVC130/// ///CB 17/11 Q1018
  • 231200Z AUTO 17006KT 150V220 9999 ///CB 15/11 Q1018
  • 231130Z AUTO 15006KT 9999 ///CB 14/12 Q1019

Expired Forecast.



MET'MAP, your aeronautical weather chart ! - Copyright ORBIFLY December 2007 - Disclaimer

ORBIFLY MET'MAP TEAM :

Programming & Development : Alexandra Zaïnal
Original concept : Baudouin d'Aumeries
Technical & hardware support : Manuel Goepfert
Assistance : Marc-Olivier Méhu




SOURCES & CREDITS :

   NOAA